Time,TemperatureF,DewpointF,PressureIn,WindDirection,WindDirectionDegrees,WindSpeedMPH,WindSpeedGustMPH,Humidity,HourlyPrecipIn,Conditions,Clouds,dailyrainin,SoftwareType,DateUTC
2013-02-02 00:02:00,-1.0,-8.0,30.14,SW,229,2.0,5.0,70,0.00,,,0.00,,2013-02-02 06:02:00,
2013-02-02 00:12:00,-1.0,-8.0,30.14,SW,229,2.0,5.0,70,0.00,,,0.00,,2013-02-02 06:12:00,
2013-02-02 00:22:00,-1.0,-8.0,30.14,WSW,246,3.0,6.0,70,0.00,,,0.00,,2013-02-02 06:22:00,
2013-02-02 00:31:00,-1.0,-8.0,30.14,WSW,257,2.0,6.0,70,0.00,,,0.00,,2013-02-02 06:31:00,
2013-02-02 00:41:00,-1.0,-8.0,30.14,WSW,257,2.0,6.0,70,0.00,,,0.00,,2013-02-02 06:41:00,
2013-02-02 00:51:00,-1.0,-8.0,30.14,WSW,249,1.0,5.0,71,0.00,,,0.00,,2013-02-02 06:51:00,
2013-02-02 01:02:00,-1.0,-8.0,30.14,WSW,249,1.0,5.0,71,0.00,,,0.00,,2013-02-02 07:02:00,
2013-02-02 01:12:00,-1.0,-8.0,30.14,WSW,249,1.0,5.0,71,0.00,,,0.00,,2013-02-02 07:12:00,
2013-02-02 01:21:00,0.0,-7.0,30.13,West,262,1.0,5.0,71,0.00,,,0.00,,2013-02-02 07:21:00,
2013-02-02 01:32:00,-1.0,-8.0,30.13,West,262,3.0,6.0,71,0.00,,,0.00,,2013-02-02 07:32:00,
2013-02-02 01:42:00,-1.0,-8.0,30.13,West,262,3.0,6.0,71,0.00,,,0.00,,2013-02-02 07:42:00,
2013-02-02 01:51:00,-1.0,-8.0,30.13,WSW,245,3.0,7.0,71,0.00,,,0.00,,2013-02-02 07:51:00,
2013-02-02 02:01:00,0.0,-7.0,30.13,SW,235,4.0,7.0,71,0.00,,,0.00,,2013-02-02 08:01:00,
2013-02-02 02:11:00,0.0,-7.0,30.13,SW,235,4.0,7.0,71,0.00,,,0.00,,2013-02-02 08:11:00,
2013-02-02 02:21:00,0.0,-7.0,30.13,SW,235,4.0,7.0,71,0.00,,,0.00,,2013-02-02 08:21:00,
2013-02-02 02:31:00,0.0,-7.0,30.13,WSW,256,4.0,8.0,71,0.00,,,0.00,,2013-02-02 08:31:00,
2013-02-02 02:42:00,0.0,-7.0,30.13,WSW,256,4.0,8.0,71,0.00,,,0.00,,2013-02-02 08:42:00,
2013-02-02 02:53:00,0.0,-7.0,30.13,WNW,288,2.0,8.0,72,0.00,,,0.00,,2013-02-02 08:53:00,
2013-02-02 03:01:00,0.0,-7.0,30.13,West,274,4.0,7.0,72,0.00,,,0.00,,2013-02-02 09:01:00,
2013-02-02 03:11:00,0.0,-7.0,30.13,West,274,4.0,7.0,72,0.00,,,0.00,,2013-02-02 09:11:00,
2013-02-02 03:22:00,0.0,-7.0,30.13,WNW,290,3.0,9.0,72,0.00,,,0.00,,2013-02-02 09:22:00,
2013-02-02 03:31:00,0.0,-7.0,30.12,WNW,285,3.0,7.0,73,0.00,,,0.00,,2013-02-02 09:31:00,
2013-02-02 03:42:00,0.0,-7.0,30.12,WNW,285,3.0,7.0,73,0.00,,,0.00,,2013-02-02 09:42:00,
2013-02-02 03:52:00,0.0,-7.0,30.12,WNW,290,3.0,6.0,72,0.00,,,0.00,,2013-02-02 09:52:00,
2013-02-02 04:01:00,0.0,-7.0,30.12,West,278,2.0,6.0,72,0.00,,,0.00,,2013-02-02 10:01:00,
2013-02-02 04:11:00,0.0,-7.0,30.12,West,278,2.0,6.0,72,0.00,,,0.00,,2013-02-02 10:11:00,
2013-02-02 04:21:00,-1.0,-8.0,30.12,NW,320,2.0,6.0,71,0.00,,,0.00,,2013-02-02 10:21:00,
2013-02-02 04:32:00,-1.0,-8.0,30.11,West,264,4.0,7.0,71,0.00,,,0.00,,2013-02-02 10:32:00,
2013-02-02 04:42:00,-1.0,-8.0,30.11,West,264,4.0,7.0,71,0.00,,,0.00,,2013-02-02 10:42:00,
2013-02-02 04:52:00,-1.0,-8.0,30.12,WNW,294,4.0,8.0,71,0.00,,,0.00,,2013-02-02 10:52:00,
2013-02-02 05:01:00,-1.0,-8.0,30.12,NW,305,2.0,9.0,71,0.00,,,0.00,,2013-02-02 11:01:00,
2013-02-02 05:11:00,-1.0,-8.0,30.12,NW,305,2.0,9.0,71,0.00,,,0.00,,2013-02-02 11:11:00,
2013-02-02 05:21:00,-2.0,-9.0,30.12,NW,314,2.0,7.0,71,0.00,,,0.00,,2013-02-02 11:21:00,
2013-02-02 05:32:00,-2.0,-9.0,30.12,NW,315,1.0,6.0,72,0.00,,,0.00,,2013-02-02 11:32:00,
2013-02-02 05:42:00,-2.0,-9.0,30.12,NW,315,1.0,6.0,72,0.00,,,0.00,,2013-02-02 11:42:00,
2013-02-02 05:52:00,-3.0,-9.0,30.13,West,273,1.0,4.0,73,0.00,,,0.00,,2013-02-02 11:52:00,
2013-02-02 06:01:00,-3.0,-9.0,30.13,NW,313,1.0,6.0,74,0.00,,,0.00,,2013-02-02 12:01:00,
2013-02-02 06:11:00,-3.0,-9.0,30.13,NW,313,1.0,6.0,74,0.00,,,0.00,,2013-02-02 12:11:00,
2013-02-02 06:22:00,-4.0,-10.0,30.13,NW,318,2.0,7.0,74,0.00,,,0.00,,2013-02-02 12:22:00,
2013-02-02 06:32:00,-4.0,-10.0,30.14,NNW,333,1.0,7.0,75,0.00,,,0.00,,2013-02-02 12:32:00,
2013-02-02 06:42:00,-4.0,-10.0,30.14,NNW,333,1.0,7.0,75,0.00,,,0.00,,2013-02-02 12:42:00,
2013-02-02 06:52:00,-4.0,-10.0,30.14,NW,304,4.0,8.0,75,0.00,,,0.00,,2013-02-02 12:52:00,
2013-02-02 07:03:00,-5.0,-11.0,30.14,WNW,295,1.0,6.0,75,0.00,,,0.00,,2013-02-02 13:03:00,
2013-02-02 07:11:00,-5.0,-11.0,30.14,WNW,295,1.0,6.0,75,0.00,,,0.00,,2013-02-02 13:11:00,
2013-02-02 07:21:00,-5.0,-11.0,30.14,NW,314,3.0,7.0,76,0.00,,,0.00,,2013-02-02 13:21:00,
2013-02-02 07:32:00,-5.0,-11.0,30.14,NW,314,3.0,7.0,76,0.00,,,0.00,,2013-02-02 13:32:00,
2013-02-02 07:42:00,-5.0,-11.0,30.14,NW,314,3.0,7.0,76,0.00,,,0.00,,2013-02-02 13:42:00,
2013-02-02 07:52:00,-5.0,-10.0,30.15,NW,321,5.0,9.0,77,0.00,,,0.00,,2013-02-02 13:52:00,
2013-02-02 08:02:00,-4.0,-9.0,30.15,NW,312,3.0,9.0,77,0.00,,,0.00,,2013-02-02 14:02:00,
2013-02-02 08:11:00,-4.0,-9.0,30.15,NW,312,3.0,9.0,77,0.00,,,0.00,,2013-02-02 14:11:00,
2013-02-02 08:22:00,-3.0,-9.0,30.15,NW,305,5.0,13.0,76,0.00,,,0.00,,2013-02-02 14:22:00,
2013-02-02 08:32:00,-3.0,-9.0,30.15,NW,307,5.0,12.0,76,0.00,,,0.00,,2013-02-02 14:32:00,
2013-02-02 08:42:00,-3.0,-9.0,30.15,NW,307,5.0,12.0,76,0.00,,,0.00,,2013-02-02 14:42:00,
2013-02-02 08:52:00,-2.0,-8.0,30.15,WNW,288,5.0,10.0,75,0.00,,,0.00,,2013-02-02 14:52:00,
2013-02-02 09:03:00,-2.0,-8.0,30.15,WNW,300,4.0,11.0,75,0.00,,,0.00,,2013-02-02 15:03:00,
2013-02-02 09:12:00,-2.0,-8.0,30.15,WNW,300,4.0,11.0,75,0.00,,,0.00,,2013-02-02 15:12:00,
2013-02-02 09:22:00,-1.0,-7.0,30.15,NW,325,4.0,11.0,75,0.00,,,0.00,,2013-02-02 15:22:00,
2013-02-02 09:32:00,0.0,-6.0,30.15,NW,316,4.0,8.0,74,0.00,,,0.00,,2013-02-02 15:32:00,
2013-02-02 09:42:00,0.0,-6.0,30.15,NW,316,4.0,8.0,74,0.00,,,0.00,,2013-02-02 15:42:00,
2013-02-02 09:52:00,1.0,-6.0,30.15,NW,309,2.0,7.0,73,0.00,,,0.00,,2013-02-02 15:52:00,
2013-02-02 11:32:00,8.0,-4.0,30.15,WNW,303,7.0,12.0,57,0.00,,,0.00,,2013-02-02 17:32:00,
2013-02-02 11:42:00,8.0,-4.0,30.15,WNW,303,7.0,12.0,57,0.00,,,0.00,,2013-02-02 17:42:00,
2013-02-02 11:52:00,8.0,-4.0,30.15,NNW,333,7.0,11.0,56,0.00,,,0.00,,2013-02-02 17:52:00,
2013-02-02 17:52:00,8.0,-4.0,30.10,WSW,255,0.0,1.0,58,0.00,,,0.00,,2013-02-02 23:52:00,
2013-02-02 18:02:00,6.0,-4.0,30.10,WSW,255,0.0,0.0,62,0.00,,,0.00,,2013-02-03 00:02:00,
2013-02-02 18:11:00,6.0,-4.0,30.10,WSW,255,0.0,0.0,62,0.00,,,0.00,,2013-02-03 00:11:00,
2013-02-02 18:22:00,5.0,-4.0,30.09,WSW,255,0.0,0.0,66,0.00,,,0.00,,2013-02-03 00:22:00,
2013-02-02 18:32:00,4.0,-5.0,30.09,WSW,255,0.0,0.0,66,0.00,,,0.00,,2013-02-03 00:32:00,
2013-02-02 18:41:00,4.0,-5.0,30.09,WSW,255,0.0,0.0,66,0.00,,,0.00,,2013-02-03 00:41:00,
2013-02-02 18:51:00,3.0,-5.0,30.09,WSW,255,0.0,0.0,69,0.00,,,0.00,,2013-02-03 00:51:00,
2013-02-02 19:02:00,2.0,-6.0,30.09,WSW,255,0.0,0.0,70,0.00,,,0.00,,2013-02-03 01:02:00,
2013-02-02 19:11:00,2.0,-6.0,30.09,WSW,255,0.0,0.0,70,0.00,,,0.00,,2013-02-03 01:11:00,
2013-02-02 19:21:00,1.0,-6.0,30.09,WSW,256,0.0,1.0,71,0.00,,,0.00,,2013-02-03 01:21:00,
2013-02-02 19:32:00,0.0,-7.0,30.08,WSW,255,0.0,0.0,72,0.00,,,0.00,,2013-02-03 01:32:00,
2013-02-02 19:42:00,0.0,-7.0,30.08,WSW,255,0.0,0.0,72,0.00,,,0.00,,2013-02-03 01:42:00,
2013-02-02 19:52:00,0.0,-7.0,30.08,WSW,245,0.0,1.0,73,0.00,,,0.00,,2013-02-03 01:52:00,
2013-02-02 20:01:00,0.0,-6.0,30.07,SW,236,0.0,0.0,75,0.00,,,0.00,,2013-02-03 02:01:00,
2013-02-02 20:11:00,0.0,-6.0,30.07,SW,236,0.0,0.0,75,0.00,,,0.00,,2013-02-03 02:11:00,
2013-02-02 20:21:00,-1.0,-7.0,30.08,West,276,0.0,1.0,75,0.00,,,0.00,,2013-02-03 02:21:00,
2013-02-02 20:32:00,-1.0,-7.0,30.08,West,276,0.0,1.0,75,0.00,,,0.00,,2013-02-03 02:32:00,
2013-02-02 20:42:00,-1.0,-7.0,30.08,West,276,0.0,1.0,75,0.00,,,0.00,,2013-02-03 02:42:00,
2013-02-02 20:52:00,-2.0,-8.0,30.08,NW,311,0.0,1.0,75,0.00,,,0.00,,2013-02-03 02:52:00,
2013-02-02 21:02:00,-2.0,-8.0,30.07,NW,322,0.0,1.0,76,0.00,,,0.00,,2013-02-03 03:02:00,
2013-02-02 21:11:00,-2.0,-8.0,30.07,NW,322,0.0,1.0,76,0.00,,,0.00,,2013-02-03 03:11:00,
2013-02-02 21:21:00,-2.0,-7.0,30.07,SE,143,0.0,1.0,77,0.00,,,0.00,,2013-02-03 03:21:00,
2013-02-02 21:32:00,-3.0,-8.0,30.06,SE,145,0.0,0.0,78,0.00,,,0.00,,2013-02-03 03:32:00,
2013-02-02 21:42:00,-3.0,-8.0,30.06,SE,145,0.0,0.0,78,0.00,,,0.00,,2013-02-03 03:42:00,
2013-02-02 21:51:00,-4.0,-9.0,30.06,West,269,0.0,0.0,79,0.00,,,0.00,,2013-02-03 03:51:00,
2013-02-02 22:01:00,-4.0,-9.0,30.05,SW,228,0.0,1.0,80,0.00,,,0.00,,2013-02-03 04:01:00,
2013-02-02 22:11:00,-4.0,-9.0,30.05,SW,228,0.0,1.0,80,0.00,,,0.00,,2013-02-03 04:11:00,
2013-02-02 22:21:00,-4.0,-9.0,30.05,SW,224,0.0,1.0,80,0.00,,,0.00,,2013-02-03 04:21:00,
2013-02-02 22:32:00,-4.0,-8.0,30.04,SSE,150,0.0,1.0,81,0.00,,,0.00,,2013-02-03 04:32:00,
2013-02-02 22:42:00,-4.0,-8.0,30.04,SSE,150,0.0,1.0,81,0.00,,,0.00,,2013-02-03 04:42:00,
2013-02-02 22:52:00,-2.0,-7.0,30.03,SSE,155,0.0,0.0,79,0.00,,,0.00,,2013-02-03 04:52:00,
2013-02-02 23:03:00,-2.0,-7.0,30.03,SW,235,0.0,0.0,80,0.00,,,0.00,,2013-02-03 05:03:00,
2013-02-02 23:11:00,-2.0,-7.0,30.03,SW,235,0.0,0.0,80,0.00,,,0.00,,2013-02-03 05:11:00,
2013-02-02 23:22:00,-2.0,-7.0,30.02,SW,235,0.0,0.0,79,0.00,,,0.00,,2013-02-03 05:22:00,
2013-02-02 23:32:00,-1.0,-6.0,30.02,SW,235,0.0,0.0,77,0.00,,,0.00,,2013-02-03 05:32:00,
2013-02-02 23:42:00,-1.0,-6.0,30.02,SW,235,0.0,0.0,77,0.00,,,0.00,,2013-02-03 05:42:00,
2013-02-02 23:52:00,-3.0,-8.0,30.01,SW,217,0.0,1.0,79,0.00,,,0.00,,2013-02-03 05:52:00,